sensor_id;sensor_type;location;lat;lon;timestamp;temperature;humidity
35593;DHT22;64447;52.140;5.602;2023-05-13T00:00:07;17.40;79.60
35593;DHT22;64447;52.140;5.602;2023-05-13T00:02:32;17.40;79.90
35593;DHT22;64447;52.140;5.602;2023-05-13T00:04:58;17.50;79.80
35593;DHT22;64447;52.140;5.602;2023-05-13T00:07:23;17.20;78.60
35593;DHT22;64447;52.140;5.602;2023-05-13T00:09:50;16.80;80.10
35593;DHT22;64447;52.140;5.602;2023-05-13T00:12:16;16.80;79.90
35593;DHT22;64447;52.140;5.602;2023-05-13T00:14:41;16.60;80.20
35593;DHT22;64447;52.140;5.602;2023-05-13T00:17:07;16.80;80.40
35593;DHT22;64447;52.140;5.602;2023-05-13T00:19:32;16.60;80.70
35593;DHT22;64447;52.140;5.602;2023-05-13T00:21:58;16.70;80.30
35593;DHT22;64447;52.140;5.602;2023-05-13T00:27:45;16.80;81.00
35593;DHT22;64447;52.140;5.602;2023-05-13T00:30:11;16.60;81.10
35593;DHT22;64447;52.140;5.602;2023-05-13T00:32:37;16.60;81.30
35593;DHT22;64447;52.140;5.602;2023-05-13T00:35:02;16.70;82.60
35593;DHT22;64447;52.140;5.602;2023-05-13T00:37:28;16.60;81.50
35593;DHT22;64447;52.140;5.602;2023-05-13T00:39:53;16.50;81.50
35593;DHT22;64447;52.140;5.602;2023-05-13T00:42:19;16.50;82.20
35593;DHT22;64447;52.140;5.602;2023-05-13T00:44:45;16.50;81.50
35593;DHT22;64447;52.140;5.602;2023-05-13T00:47:11;16.50;82.10
35593;DHT22;64447;52.140;5.602;2023-05-13T00:49:36;16.50;81.60
35593;DHT22;64447;52.140;5.602;2023-05-13T00:52:03;16.40;82.70
35593;DHT22;64447;52.140;5.602;2023-05-13T00:57:50;16.10;82.60
35593;DHT22;64447;52.140;5.602;2023-05-13T01:00:16;16.00;83.00
35593;DHT22;64447;52.140;5.602;2023-05-13T01:08:20;16.10;83.50
35593;DHT22;64447;52.140;5.602;2023-05-13T01:11:01;16.00;84.20
35593;DHT22;64447;52.140;5.602;2023-05-13T01:13:33;15.90;84.50
35593;DHT22;64447;52.140;5.602;2023-05-13T01:16:20;15.70;85.10
35593;DHT22;64447;52.140;5.602;2023-05-13T01:18:56;15.80;85.00
35593;DHT22;64447;52.140;5.602;2023-05-13T01:21:26;15.90;84.40
35593;DHT22;64447;52.140;5.602;2023-05-13T01:23:52;16.00;85.00
35593;DHT22;64447;52.140;5.602;2023-05-13T01:26:19;16.10;84.50
35593;DHT22;64447;52.140;5.602;2023-05-13T01:28:45;16.20;83.40
35593;DHT22;64447;52.140;5.602;2023-05-13T01:31:12;16.20;83.80
35593;DHT22;64447;52.140;5.602;2023-05-13T01:33:39;16.00;84.30
35593;DHT22;64447;52.140;5.602;2023-05-13T01:36:06;15.30;86.30
35593;DHT22;64447;52.140;5.602;2023-05-13T01:38:34;15.10;87.40
35593;DHT22;64447;52.140;5.602;2023-05-13T01:41:00;15.10;88.10
35593;DHT22;64447;52.140;5.602;2023-05-13T01:43:25;14.80;90.00
35593;DHT22;64447;52.140;5.602;2023-05-13T01:45:51;14.90;89.40
35593;DHT22;64447;52.140;5.602;2023-05-13T01:48:17;14.90;88.90
35593;DHT22;64447;52.140;5.602;2023-05-13T01:53:10;14.40;90.90
35593;DHT22;64447;52.140;5.602;2023-05-13T01:55:36;14.60;91.30
35593;DHT22;64447;52.140;5.602;2023-05-13T01:58:02;14.80;90.80
35593;DHT22;64447;52.140;5.602;2023-05-13T02:00:27;15.00;90.50
35593;DHT22;64447;52.140;5.602;2023-05-13T02:02:53;15.10;90.20
35593;DHT22;64447;52.140;5.602;2023-05-13T02:05:18;15.00;90.60
35593;DHT22;64447;52.140;5.602;2023-05-13T02:07:44;15.00;90.60
35593;DHT22;64447;52.140;5.602;2023-05-13T02:10:10;15.00;90.80
35593;DHT22;64447;52.140;5.602;2023-05-13T02:12:36;14.90;90.90
35593;DHT22;64447;52.140;5.602;2023-05-13T02:15:01;14.60;91.50
35593;DHT22;64447;52.140;5.602;2023-05-13T02:17:27;14.70;91.60
35593;DHT22;64447;52.140;5.602;2023-05-13T02:19:53;14.90;91.60
35593;DHT22;64447;52.140;5.602;2023-05-13T02:22:18;15.00;91.10
35593;DHT22;64447;52.140;5.602;2023-05-13T02:28:05;14.60;92.10
35593;DHT22;64447;52.140;5.602;2023-05-13T02:30:31;14.70;92.00
35593;DHT22;64447;52.140;5.602;2023-05-13T02:32:56;14.60;92.40
35593;DHT22;64447;52.140;5.602;2023-05-13T02:35:22;14.70;92.30
35593;DHT22;64447;52.140;5.602;2023-05-13T02:37:49;14.60;92.40
35593;DHT22;64447;52.140;5.602;2023-05-13T02:40:15;14.60;92.70
35593;DHT22;64447;52.140;5.602;2023-05-13T02:42:41;14.60;92.70
35593;DHT22;64447;52.140;5.602;2023-05-13T02:45:08;14.60;92.80
35593;DHT22;64447;52.140;5.602;2023-05-13T02:47:34;14.60;92.80
35593;DHT22;64447;52.140;5.602;2023-05-13T02:50:00;14.20;92.80
35593;DHT22;64447;52.140;5.602;2023-05-13T02:52:25;14.40;93.70
35593;DHT22;64447;52.140;5.602;2023-05-13T02:58:12;14.30;93.60
35593;DHT22;64447;52.140;5.602;2023-05-13T03:00:38;14.40;93.90
35593;DHT22;64447;52.140;5.602;2023-05-13T03:03:04;14.40;93.90
35593;DHT22;64447;52.140;5.602;2023-05-13T03:05:29;14.30;93.70
35593;DHT22;64447;52.140;5.602;2023-05-13T03:07:55;14.30;94.00
35593;DHT22;64447;52.140;5.602;2023-05-13T03:10:22;14.20;94.30
35593;DHT22;64447;52.140;5.602;2023-05-13T03:12:47;14.20;94.50
35593;DHT22;64447;52.140;5.602;2023-05-13T03:15:15;14.10;94.40
35593;DHT22;64447;52.140;5.602;2023-05-13T03:17:40;13.80;95.20
35593;DHT22;64447;52.140;5.602;2023-05-13T03:20:07;13.90;95.20
35593;DHT22;64447;52.140;5.602;2023-05-13T03:22:32;13.80;95.40
35593;DHT22;64447;52.140;5.602;2023-05-13T03:28:19;13.80;95.60
35593;DHT22;64447;52.140;5.602;2023-05-13T03:30:45;13.80;95.60
35593;DHT22;64447;52.140;5.602;2023-05-13T03:33:11;13.70;98.70
35593;DHT22;64447;52.140;5.602;2023-05-13T03:35:36;13.50;96.30
35593;DHT22;64447;52.140;5.602;2023-05-13T03:38:03;13.50;96.40
35593;DHT22;64447;52.140;5.602;2023-05-13T03:40:29;13.70;96.40
35593;DHT22;64447;52.140;5.602;2023-05-13T03:42:54;13.80;96.30
35593;DHT22;64447;52.140;5.602;2023-05-13T03:45:20;13.80;96.20
35593;DHT22;64447;52.140;5.602;2023-05-13T03:47:46;13.50;96.60
35593;DHT22;64447;52.140;5.602;2023-05-13T03:50:11;13.70;96.70
35593;DHT22;64447;52.140;5.602;2023-05-13T03:52:37;13.70;96.80
35593;DHT22;64447;52.140;5.602;2023-05-13T03:58:24;13.50;97.40
35593;DHT22;64447;52.140;5.602;2023-05-13T04:00:49;13.40;97.70
35593;DHT22;64447;52.140;5.602;2023-05-13T04:03:15;13.40;97.60
35593;DHT22;64447;52.140;5.602;2023-05-13T04:05:42;13.50;97.50
35593;DHT22;64447;52.140;5.602;2023-05-13T04:08:07;13.50;97.30
35593;DHT22;64447;52.140;5.602;2023-05-13T04:10:33;13.50;97.50
35593;DHT22;64447;52.140;5.602;2023-05-13T04:12:58;13.50;97.50
35593;DHT22;64447;52.140;5.602;2023-05-13T04:15:24;13.50;97.70
35593;DHT22;64447;52.140;5.602;2023-05-13T04:17:50;13.50;97.80
35593;DHT22;64447;52.140;5.602;2023-05-13T04:20:16;13.40;98.00
35593;DHT22;64447;52.140;5.602;2023-05-13T04:22:42;13.40;97.90
35593;DHT22;64447;52.140;5.602;2023-05-13T04:28:30;13.60;97.90
35593;DHT22;64447;52.140;5.602;2023-05-13T04:30:56;13.60;97.80
35593;DHT22;64447;52.140;5.602;2023-05-13T04:33:21;13.50;97.70
35593;DHT22;64447;52.140;5.602;2023-05-13T04:35:47;13.40;98.50
35593;DHT22;64447;52.140;5.602;2023-05-13T04:38:12;13.10;99.00
35593;DHT22;64447;52.140;5.602;2023-05-13T04:40:38;13.40;98.90
35593;DHT22;64447;52.140;5.602;2023-05-13T04:43:04;13.40;98.70
35593;DHT22;64447;52.140;5.602;2023-05-13T04:45:29;13.50;98.70
35593;DHT22;64447;52.140;5.602;2023-05-13T04:47:56;13.70;98.50
35593;DHT22;64447;52.140;5.602;2023-05-13T04:50:22;13.50;98.70
35593;DHT22;64447;52.140;5.602;2023-05-13T04:52:47;13.40;99.30
35593;DHT22;64447;52.140;5.602;2023-05-13T04:58:35;13.20;99.80
35593;DHT22;64447;52.140;5.602;2023-05-13T05:01:01;13.30;99.90
35593;DHT22;64447;52.140;5.602;2023-05-13T05:03:26;13.20;99.90
35593;DHT22;64447;52.140;5.602;2023-05-13T05:05:52;13.00;99.90
35593;DHT22;64447;52.140;5.602;2023-05-13T05:08:18;13.20;99.90
35593;DHT22;64447;52.140;5.602;2023-05-13T05:10:43;13.30;99.90
35593;DHT22;64447;52.140;5.602;2023-05-13T05:13:09;13.30;99.90
35593;DHT22;64447;52.140;5.602;2023-05-13T05:15:35;13.20;99.90
35593;DHT22;64447;52.140;5.602;2023-05-13T05:18:01;13.10;99.90
35593;DHT22;64447;52.140;5.602;2023-05-13T05:20:26;12.90;99.90
35593;DHT22;64447;52.140;5.602;2023-05-13T05:22:52;13.00;99.90
35593;DHT22;64447;52.140;5.602;2023-05-13T05:28:41;13.10;99.90
35593;DHT22;64447;52.140;5.602;2023-05-13T05:31:06;13.20;99.90
35593;DHT22;64447;52.140;5.602;2023-05-13T05:33:32;13.50;99.90
35593;DHT22;64447;52.140;5.602;2023-05-13T05:35:58;13.60;99.90
35593;DHT22;64447;52.140;5.602;2023-05-13T05:38:23;13.70;99.90
35593;DHT22;64447;52.140;5.602;2023-05-13T05:40:49;13.80;99.90
35593;DHT22;64447;52.140;5.602;2023-05-13T05:43:15;14.00;99.90
35593;DHT22;64447;52.140;5.602;2023-05-13T05:45:41;14.20;99.60
35593;DHT22;64447;52.140;5.602;2023-05-13T05:48:06;14.30;99.30
35593;DHT22;64447;52.140;5.602;2023-05-13T05:50:33;14.40;99.00
35593;DHT22;64447;52.140;5.602;2023-05-13T05:52:59;14.50;99.10
35593;DHT22;64447;52.140;5.602;2023-05-13T05:58:46;14.50;98.20
35593;DHT22;64447;52.140;5.602;2023-05-13T06:01:12;14.40;98.80
35593;DHT22;64447;52.140;5.602;2023-05-13T06:03:38;14.50;98.40
35593;DHT22;64447;52.140;5.602;2023-05-13T06:06:03;14.60;98.30
35593;DHT22;64447;52.140;5.602;2023-05-13T06:08:29;14.70;98.10
35593;DHT22;64447;52.140;5.602;2023-05-13T06:10:58;14.80;98.00
35593;DHT22;64447;52.140;5.602;2023-05-13T06:13:24;14.90;97.70
35593;DHT22;64447;52.140;5.602;2023-05-13T06:15:50;15.20;97.80
35593;DHT22;64447;52.140;5.602;2023-05-13T06:18:16;15.20;97.40
35593;DHT22;64447;52.140;5.602;2023-05-13T06:20:41;15.10;98.00
35593;DHT22;64447;52.140;5.602;2023-05-13T06:23:09;15.30;97.90
35593;DHT22;64447;52.140;5.602;2023-05-13T06:28:57;15.60;97.00
35593;DHT22;64447;52.140;5.602;2023-05-13T06:31:22;15.60;96.30
35593;DHT22;64447;52.140;5.602;2023-05-13T06:33:48;15.60;96.20
35593;DHT22;64447;52.140;5.602;2023-05-13T06:36:14;15.80;96.10
35593;DHT22;64447;52.140;5.602;2023-05-13T06:38:39;15.70;96.30
35593;DHT22;64447;52.140;5.602;2023-05-13T06:41:05;15.80;96.10
35593;DHT22;64447;52.140;5.602;2023-05-13T06:43:30;15.80;96.00
35593;DHT22;64447;52.140;5.602;2023-05-13T06:45:56;15.90;95.90
35593;DHT22;64447;52.140;5.602;2023-05-13T06:48:22;15.90;95.40
35593;DHT22;64447;52.140;5.602;2023-05-13T06:50:47;15.90;95.40
35593;DHT22;64447;52.140;5.602;2023-05-13T06:53:15;16.00;95.50
35593;DHT22;64447;52.140;5.602;2023-05-13T06:59:02;16.00;95.30
35593;DHT22;64447;52.140;5.602;2023-05-13T07:01:28;16.20;95.20
35593;DHT22;64447;52.140;5.602;2023-05-13T07:03:53;16.20;94.70
35593;DHT22;64447;52.140;5.602;2023-05-13T07:06:19;16.20;95.00
35593;DHT22;64447;52.140;5.602;2023-05-13T07:08:44;16.20;95.20
35593;DHT22;64447;52.140;5.602;2023-05-13T07:11:10;16.30;95.20
35593;DHT22;64447;52.140;5.602;2023-05-13T07:13:36;16.50;95.60
35593;DHT22;64447;52.140;5.602;2023-05-13T07:16:02;16.50;94.80
35593;DHT22;64447;52.140;5.602;2023-05-13T07:18:28;16.60;95.20
35593;DHT22;64447;52.140;5.602;2023-05-13T07:20:54;16.70;94.30
35593;DHT22;64447;52.140;5.602;2023-05-13T07:23:23;16.50;94.70
35593;DHT22;64447;52.140;5.602;2023-05-13T07:29:11;16.80;94.20
35593;DHT22;64447;52.140;5.602;2023-05-13T07:31:36;16.90;94.30
35593;DHT22;64447;52.140;5.602;2023-05-13T07:34:02;17.10;94.20
35593;DHT22;64447;52.140;5.602;2023-05-13T07:36:28;17.00;94.10
35593;DHT22;64447;52.140;5.602;2023-05-13T07:38:53;17.10;94.60
35593;DHT22;64447;52.140;5.602;2023-05-13T07:41:19;17.20;94.20
35593;DHT22;64447;52.140;5.602;2023-05-13T07:43:45;17.30;93.80
35593;DHT22;64447;52.140;5.602;2023-05-13T07:46:11;17.50;93.70
35593;DHT22;64447;52.140;5.602;2023-05-13T07:48:37;17.50;92.70
35593;DHT22;64447;52.140;5.602;2023-05-13T07:51:04;17.40;92.40
35593;DHT22;64447;52.140;5.602;2023-05-13T07:53:29;17.50;93.10
35593;DHT22;64447;52.140;5.602;2023-05-13T07:59:17;18.00;93.70
35593;DHT22;64447;52.140;5.602;2023-05-13T08:01:43;18.20;93.60
35593;DHT22;64447;52.140;5.602;2023-05-13T08:04:08;18.30;91.00
35593;DHT22;64447;52.140;5.602;2023-05-13T08:06:34;18.20;91.60
35593;DHT22;64447;52.140;5.602;2023-05-13T08:09:00;18.30;91.30
35593;DHT22;64447;52.140;5.602;2023-05-13T08:11:26;18.30;89.50
35593;DHT22;64447;52.140;5.602;2023-05-13T08:13:52;18.30;90.30
35593;DHT22;64447;52.140;5.602;2023-05-13T08:16:17;18.50;90.30
35593;DHT22;64447;52.140;5.602;2023-05-13T08:18:43;18.40;90.20
35593;DHT22;64447;52.140;5.602;2023-05-13T08:21:09;18.40;90.10
35593;DHT22;64447;52.140;5.602;2023-05-13T08:23:36;18.60;90.20
35593;DHT22;64447;52.140;5.602;2023-05-13T08:29:23;19.00;90.20
35593;DHT22;64447;52.140;5.602;2023-05-13T08:31:49;19.10;87.70
35593;DHT22;64447;52.140;5.602;2023-05-13T08:34:15;19.20;87.90
35593;DHT22;64447;52.140;5.602;2023-05-13T08:36:41;19.30;87.20
35593;DHT22;64447;52.140;5.602;2023-05-13T08:39:07;19.30;87.20
35593;DHT22;64447;52.140;5.602;2023-05-13T08:41:33;19.30;88.30
35593;DHT22;64447;52.140;5.602;2023-05-13T08:43:59;19.40;87.60
35593;DHT22;64447;52.140;5.602;2023-05-13T08:46:28;19.40;88.00
35593;DHT22;64447;52.140;5.602;2023-05-13T08:48:55;19.60;89.80
35593;DHT22;64447;52.140;5.602;2023-05-13T08:51:22;19.80;87.30
35593;DHT22;64447;52.140;5.602;2023-05-13T08:53:48;19.70;87.70
35593;DHT22;64447;52.140;5.602;2023-05-13T08:59:37;19.70;84.30
35593;DHT22;64447;52.140;5.602;2023-05-13T09:02:03;19.60;86.20
35593;DHT22;64447;52.140;5.602;2023-05-13T09:04:30;19.70;86.80
35593;DHT22;64447;52.140;5.602;2023-05-13T09:06:56;19.70;86.40
35593;DHT22;64447;52.140;5.602;2023-05-13T09:09:22;19.80;86.00
35593;DHT22;64447;52.140;5.602;2023-05-13T09:11:48;19.90;85.80
35593;DHT22;64447;52.140;5.602;2023-05-13T09:14:17;20.10;86.90
35593;DHT22;64447;52.140;5.602;2023-05-13T09:16:43;20.10;84.00
35593;DHT22;64447;52.140;5.602;2023-05-13T09:19:09;20.10;81.70
35593;DHT22;64447;52.140;5.602;2023-05-13T09:21:36;20.20;84.60
35593;DHT22;64447;52.140;5.602;2023-05-13T09:24:09;20.30;80.70
35593;DHT22;64447;52.140;5.602;2023-05-13T09:30:00;20.20;80.90
35593;DHT22;64447;52.140;5.602;2023-05-13T09:32:25;20.30;82.40
35593;DHT22;64447;52.140;5.602;2023-05-13T09:34:51;20.30;78.50
35593;DHT22;64447;52.140;5.602;2023-05-13T09:37:17;20.40;80.40
35593;DHT22;64447;52.140;5.602;2023-05-13T09:39:51;20.60;79.00
35593;DHT22;64447;52.140;5.602;2023-05-13T09:42:18;20.70;79.00
35593;DHT22;64447;52.140;5.602;2023-05-13T09:44:44;20.80;77.70
35593;DHT22;64447;52.140;5.602;2023-05-13T09:47:12;21.00;76.90
35593;DHT22;64447;52.140;5.602;2023-05-13T09:49:40;21.10;77.90
35593;DHT22;64447;52.140;5.602;2023-05-13T09:52:07;21.10;75.80
35593;DHT22;64447;52.140;5.602;2023-05-13T09:54:36;21.00;75.60
35593;DHT22;64447;52.140;5.602;2023-05-13T09:57:02;21.10;76.40
35593;DHT22;64447;52.140;5.602;2023-05-13T09:59:33;21.00;75.40
35593;DHT22;64447;52.140;5.602;2023-05-13T10:02:05;20.90;76.20
35593;DHT22;64447;52.140;5.602;2023-05-13T10:04:31;21.10;77.50
35593;DHT22;64447;52.140;5.602;2023-05-13T10:07:03;21.00;76.30
35593;DHT22;64447;52.140;5.602;2023-05-13T10:09:36;21.20;78.30
35593;DHT22;64447;52.140;5.602;2023-05-13T10:15:24;21.30;73.90
35593;DHT22;64447;52.140;5.602;2023-05-13T10:17:51;21.30;75.00
35593;DHT22;64447;52.140;5.602;2023-05-13T10:20:17;21.20;74.60
35593;DHT22;64447;52.140;5.602;2023-05-13T10:22:42;21.30;74.90
35593;DHT22;64447;52.140;5.602;2023-05-13T10:25:08;21.40;75.90
35593;DHT22;64447;52.140;5.602;2023-05-13T10:27:36;21.60;75.20
35593;DHT22;64447;52.140;5.602;2023-05-13T10:30:02;21.70;74.90
35593;DHT22;64447;52.140;5.602;2023-05-13T10:32:33;21.60;73.20
35593;DHT22;64447;52.140;5.602;2023-05-13T10:35:05;21.70;73.20
35593;DHT22;64447;52.140;5.602;2023-05-13T10:43:20;21.90;72.90
35593;DHT22;64447;52.140;5.602;2023-05-13T10:45:50;22.10;71.40
35593;DHT22;64447;52.140;5.602;2023-05-13T10:48:21;22.20;69.50
35593;DHT22;64447;52.140;5.602;2023-05-13T10:50:55;22.10;67.50
35593;DHT22;64447;52.140;5.602;2023-05-13T10:53:23;22.20;69.00
35593;DHT22;64447;52.140;5.602;2023-05-13T10:55:54;22.20;67.50
35593;DHT22;64447;52.140;5.602;2023-05-13T10:58:20;22.30;70.60
35593;DHT22;64447;52.140;5.602;2023-05-13T11:00:49;22.40;64.20
35593;DHT22;64447;52.140;5.602;2023-05-13T11:05:45;22.40;63.80
35593;DHT22;64447;52.140;5.602;2023-05-13T11:08:36;22.30;63.50
35593;DHT22;64447;52.140;5.602;2023-05-13T11:11:02;22.40;60.90
35593;DHT22;64447;52.140;5.602;2023-05-13T11:13:35;22.50;59.20
35593;DHT22;64447;52.140;5.602;2023-05-13T11:16:04;22.70;59.80
35593;DHT22;64447;52.140;5.602;2023-05-13T11:18:33;22.80;63.40
35593;DHT22;64447;52.140;5.602;2023-05-13T11:21:03;22.70;58.60
35593;DHT22;64447;52.140;5.602;2023-05-13T11:23:29;22.70;60.20
35593;DHT22;64447;52.140;5.602;2023-05-13T11:26:13;22.60;59.40
35593;DHT22;64447;52.140;5.602;2023-05-13T11:29:10;22.60;58.80
35593;DHT22;64447;52.140;5.602;2023-05-13T11:31:44;22.50;60.00
35593;DHT22;64447;52.140;5.602;2023-05-13T11:34:16;22.60;61.50
35593;DHT22;64447;52.140;5.602;2023-05-13T11:36:45;22.40;56.90
35593;DHT22;64447;52.140;5.602;2023-05-13T11:39:19;22.40;57.90
35593;DHT22;64447;52.140;5.602;2023-05-13T11:41:45;22.50;57.00
35593;DHT22;64447;52.140;5.602;2023-05-13T11:44:13;22.50;57.50
35593;DHT22;64447;52.140;5.602;2023-05-13T11:46:58;22.60;57.10
35593;DHT22;64447;52.140;5.602;2023-05-13T11:49:33;22.80;55.60
35593;DHT22;64447;52.140;5.602;2023-05-13T11:52:00;22.90;56.20
35593;DHT22;64447;52.140;5.602;2023-05-13T11:54:26;23.00;56.30
35593;DHT22;64447;52.140;5.602;2023-05-13T11:56:52;23.00;53.20
35593;DHT22;64447;52.140;5.602;2023-05-13T11:59:17;23.10;54.40
35593;DHT22;64447;52.140;5.602;2023-05-13T12:01:43;23.20;52.30
35593;DHT22;64447;52.140;5.602;2023-05-13T12:04:09;23.20;49.30
35593;DHT22;64447;52.140;5.602;2023-05-13T12:06:41;23.10;51.20
35593;DHT22;64447;52.140;5.602;2023-05-13T12:09:07;23.10;50.50
35593;DHT22;64447;52.140;5.602;2023-05-13T12:11:33;23.00;49.40
35593;DHT22;64447;52.140;5.602;2023-05-13T12:13:59;23.10;48.70
35593;DHT22;64447;52.140;5.602;2023-05-13T12:16:26;23.30;50.80
35593;DHT22;64447;52.140;5.602;2023-05-13T12:19:04;23.40;50.00
35593;DHT22;64447;52.140;5.602;2023-05-13T12:21:31;23.50;48.70
35593;DHT22;64447;52.140;5.602;2023-05-13T12:23:57;23.40;47.90
35593;DHT22;64447;52.140;5.602;2023-05-13T12:26:23;23.30;49.70
35593;DHT22;64447;52.140;5.602;2023-05-13T12:28:59;23.40;49.60
35593;DHT22;64447;52.140;5.602;2023-05-13T12:31:25;23.40;49.50
35593;DHT22;64447;52.140;5.602;2023-05-13T12:33:50;23.40;49.00
35593;DHT22;64447;52.140;5.602;2023-05-13T12:36:21;23.20;49.10
35593;DHT22;64447;52.140;5.602;2023-05-13T12:39:00;23.10;49.40
35593;DHT22;64447;52.140;5.602;2023-05-13T12:41:31;23.20;49.30
35593;DHT22;64447;52.140;5.602;2023-05-13T12:44:07;23.30;49.80
35593;DHT22;64447;52.140;5.602;2023-05-13T12:46:32;23.20;50.30
35593;DHT22;64447;52.140;5.602;2023-05-13T12:49:01;23.30;50.70
35593;DHT22;64447;52.140;5.602;2023-05-13T12:51:28;23.50;50.40
35593;DHT22;64447;52.140;5.602;2023-05-13T12:53:58;23.60;50.30
35593;DHT22;64447;52.140;5.602;2023-05-13T12:56:24;23.60;49.10
35593;DHT22;64447;52.140;5.602;2023-05-13T12:58:52;23.70;49.20
35593;DHT22;64447;52.140;5.602;2023-05-13T13:01:18;23.70;47.10
35593;DHT22;64447;52.140;5.602;2023-05-13T13:03:44;23.80;47.30
35593;DHT22;64447;52.140;5.602;2023-05-13T13:06:11;23.90;48.00
35593;DHT22;64447;52.140;5.602;2023-05-13T13:08:37;24.00;49.80
35593;DHT22;64447;52.140;5.602;2023-05-13T13:11:02;23.90;48.10
35593;DHT22;64447;52.140;5.602;2023-05-13T13:13:31;23.90;47.90
35593;DHT22;64447;52.140;5.602;2023-05-13T13:15:58;23.90;49.10
35593;DHT22;64447;52.140;5.602;2023-05-13T13:18:23;23.80;46.20
35593;DHT22;64447;52.140;5.602;2023-05-13T13:20:50;23.80;47.30
35593;DHT22;64447;52.140;5.602;2023-05-13T13:23:16;23.90;46.60
35593;DHT22;64447;52.140;5.602;2023-05-13T13:25:42;24.10;45.70
35593;DHT22;64447;52.140;5.602;2023-05-13T13:28:08;24.00;45.30
35593;DHT22;64447;52.140;5.602;2023-05-13T13:30:34;24.00;43.90
35593;DHT22;64447;52.140;5.602;2023-05-13T13:32:59;24.00;43.60
35593;DHT22;64447;52.140;5.602;2023-05-13T13:35:25;24.00;43.30
35593;DHT22;64447;52.140;5.602;2023-05-13T13:37:50;23.70;42.20
35593;DHT22;64447;52.140;5.602;2023-05-13T13:40:16;23.70;45.60
35593;DHT22;64447;52.140;5.602;2023-05-13T13:46:05;23.60;41.70
35593;DHT22;64447;52.140;5.602;2023-05-13T13:48:31;23.70;44.20
35593;DHT22;64447;52.140;5.602;2023-05-13T13:50:57;23.70;44.00
35593;DHT22;64447;52.140;5.602;2023-05-13T13:53:23;23.90;42.30
35593;DHT22;64447;52.140;5.602;2023-05-13T13:55:49;23.90;41.40
35593;DHT22;64447;52.140;5.602;2023-05-13T13:58:14;24.00;40.20
35593;DHT22;64447;52.140;5.602;2023-05-13T14:00:40;24.00;42.70
35593;DHT22;64447;52.140;5.602;2023-05-13T14:03:06;23.90;40.40
35593;DHT22;64447;52.140;5.602;2023-05-13T14:05:31;23.90;42.00
35593;DHT22;64447;52.140;5.602;2023-05-13T14:07:57;23.90;43.10
35593;DHT22;64447;52.140;5.602;2023-05-13T14:10:23;23.80;43.20
35593;DHT22;64447;52.140;5.602;2023-05-13T14:16:10;24.00;43.20
35593;DHT22;64447;52.140;5.602;2023-05-13T14:18:36;24.20;43.50
35593;DHT22;64447;52.140;5.602;2023-05-13T14:21:01;24.00;42.20
35593;DHT22;64447;52.140;5.602;2023-05-13T14:23:27;24.20;43.50
35593;DHT22;64447;52.140;5.602;2023-05-13T14:25:53;24.30;42.20
35593;DHT22;64447;52.140;5.602;2023-05-13T14:28:18;24.40;41.90
35593;DHT22;64447;52.140;5.602;2023-05-13T14:30:44;24.60;41.00
35593;DHT22;64447;52.140;5.602;2023-05-13T14:33:09;24.60;42.20
35593;DHT22;64447;52.140;5.602;2023-05-13T14:35:35;24.70;43.60
35593;DHT22;64447;52.140;5.602;2023-05-13T14:38:00;24.50;43.40
35593;DHT22;64447;52.140;5.602;2023-05-13T14:40:26;24.30;40.60
35593;DHT22;64447;52.140;5.602;2023-05-13T14:46:14;24.10;41.90
35593;DHT22;64447;52.140;5.602;2023-05-13T14:48:39;24.10;41.00
35593;DHT22;64447;52.140;5.602;2023-05-13T14:51:05;24.20;41.50
35593;DHT22;64447;52.140;5.602;2023-05-13T14:53:31;24.20;40.80
35593;DHT22;64447;52.140;5.602;2023-05-13T14:55:56;24.20;42.50
35593;DHT22;64447;52.140;5.602;2023-05-13T14:58:22;24.20;43.30
35593;DHT22;64447;52.140;5.602;2023-05-13T15:00:48;24.20;42.30
35593;DHT22;64447;52.140;5.602;2023-05-13T15:03:14;24.20;41.40
35593;DHT22;64447;52.140;5.602;2023-05-13T15:05:40;24.30;42.50
35593;DHT22;64447;52.140;5.602;2023-05-13T15:08:07;24.30;41.20
35593;DHT22;64447;52.140;5.602;2023-05-13T15:10:32;24.40;41.50
35593;DHT22;64447;52.140;5.602;2023-05-13T15:16:20;24.70;42.80
35593;DHT22;64447;52.140;5.602;2023-05-13T15:18:46;24.80;41.70
35593;DHT22;64447;52.140;5.602;2023-05-13T15:21:11;24.70;41.80
35593;DHT22;64447;52.140;5.602;2023-05-13T15:23:37;24.40;40.20
35593;DHT22;64447;52.140;5.602;2023-05-13T15:32:28;24.40;41.60
35593;DHT22;64447;52.140;5.602;2023-05-13T15:34:54;24.30;41.70
35593;DHT22;64447;52.140;5.602;2023-05-13T15:37:20;24.20;41.30
35593;DHT22;64447;52.140;5.602;2023-05-13T15:39:45;24.20;41.80
35593;DHT22;64447;52.140;5.602;2023-05-13T15:42:12;24.30;42.00
35593;DHT22;64447;52.140;5.602;2023-05-13T15:44:37;24.40;41.80
35593;DHT22;64447;52.140;5.602;2023-05-13T15:47:03;24.40;43.00
35593;DHT22;64447;52.140;5.602;2023-05-13T15:49:30;24.60;43.00
35593;DHT22;64447;52.140;5.602;2023-05-13T15:51:57;24.70;42.80
35593;DHT22;64447;52.140;5.602;2023-05-13T15:54:22;24.60;42.00
35593;DHT22;64447;52.140;5.602;2023-05-13T15:56:48;24.40;41.00
35593;DHT22;64447;52.140;5.602;2023-05-13T15:59:13;24.30;41.70
35593;DHT22;64447;52.140;5.602;2023-05-13T16:01:39;24.20;42.60
35593;DHT22;64447;52.140;5.602;2023-05-13T16:04:06;24.00;42.60
35593;DHT22;64447;52.140;5.602;2023-05-13T16:06:32;24.10;43.40
35593;DHT22;64447;52.140;5.602;2023-05-13T16:08:58;24.20;42.70
35593;DHT22;64447;52.140;5.602;2023-05-13T16:11:26;24.20;41.00
35593;DHT22;64447;52.140;5.602;2023-05-13T16:13:52;24.30;40.90
35593;DHT22;64447;52.140;5.602;2023-05-13T16:16:18;24.30;42.00
35593;DHT22;64447;52.140;5.602;2023-05-13T16:18:44;24.40;41.90
35593;DHT22;64447;52.140;5.602;2023-05-13T16:21:09;24.30;42.20
35593;DHT22;64447;52.140;5.602;2023-05-13T16:23:35;24.30;42.40
35593;DHT22;64447;52.140;5.602;2023-05-13T16:26:00;24.20;42.60
35593;DHT22;64447;52.140;5.602;2023-05-13T16:31:49;24.40;42.40
35593;DHT22;64447;52.140;5.602;2023-05-13T16:34:14;24.40;41.80
35593;DHT22;64447;52.140;5.602;2023-05-13T16:36:40;24.50;41.20
35593;DHT22;64447;52.140;5.602;2023-05-13T16:39:05;24.50;40.80
35593;DHT22;64447;52.140;5.602;2023-05-13T16:41:31;24.40;40.40
35593;DHT22;64447;52.140;5.602;2023-05-13T16:47:21;24.40;41.20
35593;DHT22;64447;52.140;5.602;2023-05-13T16:49:47;24.60;41.30
35593;DHT22;64447;52.140;5.602;2023-05-13T16:52:14;24.70;41.60
35593;DHT22;64447;52.140;5.602;2023-05-13T16:54:40;24.70;41.80
35593;DHT22;64447;52.140;5.602;2023-05-13T16:57:05;24.70;42.50
35593;DHT22;64447;52.140;5.602;2023-05-13T16:59:31;24.70;43.50
35593;DHT22;64447;52.140;5.602;2023-05-13T17:01:58;24.60;42.80
35593;DHT22;64447;52.140;5.602;2023-05-13T17:04:24;24.50;42.60
35593;DHT22;64447;52.140;5.602;2023-05-13T17:06:50;24.50;42.50
35593;DHT22;64447;52.140;5.602;2023-05-13T17:09:18;24.60;42.10